sensor_id;sensor_type;location;lat;lon;timestamp;P1;durP1;ratioP1;P2;durP2;ratioP2
81930;SDS011;71395;43.488;1.472;2023-12-20T00:02:23;14.75;;;8.30;;
81930;SDS011;71395;43.488;1.472;2023-12-20T00:04:49;15.85;;;8.32;;
81930;SDS011;71395;43.488;1.472;2023-12-20T00:07:15;17.10;;;9.00;;
81930;SDS011;71395;43.488;1.472;2023-12-20T00:09:40;14.20;;;7.97;;
81930;SDS011;71395;43.488;1.472;2023-12-20T00:12:06;14.93;;;9.10;;
81930;SDS011;71395;43.488;1.472;2023-12-20T00:14:31;15.18;;;8.70;;
81930;SDS011;71395;43.488;1.472;2023-12-20T00:16:57;15.90;;;8.80;;
81930;SDS011;71395;43.488;1.472;2023-12-20T00:19:22;14.35;;;8.13;;
81930;SDS011;71395;43.488;1.472;2023-12-20T00:21:47;14.27;;;8.27;;
81930;SDS011;71395;43.488;1.472;2023-12-20T00:24:13;14.25;;;8.02;;
81930;SDS011;71395;43.488;1.472;2023-12-20T00:26:38;14.05;;;8.07;;
81930;SDS011;71395;43.488;1.472;2023-12-20T00:29:04;13.68;;;8.32;;
81930;SDS011;71395;43.488;1.472;2023-12-20T00:31:29;14.40;;;7.90;;
81930;SDS011;71395;43.488;1.472;2023-12-20T00:33:54;13.90;;;8.27;;
81930;SDS011;71395;43.488;1.472;2023-12-20T00:36:20;13.50;;;7.75;;
81930;SDS011;71395;43.488;1.472;2023-12-20T00:38:45;14.07;;;8.07;;
81930;SDS011;71395;43.488;1.472;2023-12-20T00:41:11;13.63;;;7.95;;
81930;SDS011;71395;43.488;1.472;2023-12-20T00:43:36;11.98;;;7.22;;
81930;SDS011;71395;43.488;1.472;2023-12-20T00:46:02;14.25;;;7.75;;
81930;SDS011;71395;43.488;1.472;2023-12-20T00:48:27;14.02;;;7.93;;
81930;SDS011;71395;43.488;1.472;2023-12-20T00:50:55;14.80;;;8.77;;
81930;SDS011;71395;43.488;1.472;2023-12-20T00:53:20;12.77;;;7.93;;
81930;SDS011;71395;43.488;1.472;2023-12-20T00:55:46;13.70;;;7.38;;
81930;SDS011;71395;43.488;1.472;2023-12-20T00:58:11;12.98;;;7.18;;
81930;SDS011;71395;43.488;1.472;2023-12-20T01:00:36;11.40;;;7.18;;
81930;SDS011;71395;43.488;1.472;2023-12-20T01:03:02;10.65;;;7.00;;
81930;SDS011;71395;43.488;1.472;2023-12-20T01:05:27;12.48;;;8.23;;
81930;SDS011;71395;43.488;1.472;2023-12-20T01:07:53;11.88;;;7.53;;
81930;SDS011;71395;43.488;1.472;2023-12-20T01:10:19;11.18;;;6.97;;
81930;SDS011;71395;43.488;1.472;2023-12-20T01:12:44;11.35;;;7.38;;
81930;SDS011;71395;43.488;1.472;2023-12-20T01:15:10;11.32;;;7.05;;
81930;SDS011;71395;43.488;1.472;2023-12-20T01:17:35;10.70;;;6.45;;
81930;SDS011;71395;43.488;1.472;2023-12-20T01:20:01;12.15;;;7.45;;
81930;SDS011;71395;43.488;1.472;2023-12-20T01:22:26;11.73;;;6.97;;
81930;SDS011;71395;43.488;1.472;2023-12-20T01:24:52;10.05;;;6.63;;
81930;SDS011;71395;43.488;1.472;2023-12-20T01:27:17;9.70;;;6.28;;
81930;SDS011;71395;43.488;1.472;2023-12-20T01:29:42;11.00;;;6.85;;
81930;SDS011;71395;43.488;1.472;2023-12-20T01:32:08;11.73;;;6.68;;
81930;SDS011;71395;43.488;1.472;2023-12-20T01:34:33;10.85;;;6.57;;
81930;SDS011;71395;43.488;1.472;2023-12-20T01:36:59;11.25;;;7.25;;
81930;SDS011;71395;43.488;1.472;2023-12-20T01:39:25;12.38;;;6.70;;
81930;SDS011;71395;43.488;1.472;2023-12-20T01:41:50;10.43;;;7.15;;
81930;SDS011;71395;43.488;1.472;2023-12-20T01:44:16;10.77;;;6.60;;
81930;SDS011;71395;43.488;1.472;2023-12-20T01:46:41;11.23;;;7.28;;
81930;SDS011;71395;43.488;1.472;2023-12-20T01:49:06;10.20;;;6.25;;
81930;SDS011;71395;43.488;1.472;2023-12-20T01:51:33;10.07;;;6.57;;
81930;SDS011;71395;43.488;1.472;2023-12-20T01:53:59;11.65;;;6.47;;
81930;SDS011;71395;43.488;1.472;2023-12-20T01:56:26;10.20;;;6.70;;
81930;SDS011;71395;43.488;1.472;2023-12-20T01:58:53;9.80;;;6.05;;
81930;SDS011;71395;43.488;1.472;2023-12-20T02:01:21;11.38;;;6.45;;
81930;SDS011;71395;43.488;1.472;2023-12-20T02:03:46;10.20;;;6.50;;
81930;SDS011;71395;43.488;1.472;2023-12-20T02:06:12;10.07;;;5.82;;
81930;SDS011;71395;43.488;1.472;2023-12-20T02:08:38;11.13;;;6.90;;
81930;SDS011;71395;43.488;1.472;2023-12-20T02:11:03;10.48;;;6.28;;
81930;SDS011;71395;43.488;1.472;2023-12-20T02:13:29;9.80;;;5.97;;
81930;SDS011;71395;43.488;1.472;2023-12-20T02:15:55;9.90;;;6.18;;
81930;SDS011;71395;43.488;1.472;2023-12-20T02:18:21;11.00;;;6.00;;
81930;SDS011;71395;43.488;1.472;2023-12-20T02:20:47;8.68;;;5.78;;
81930;SDS011;71395;43.488;1.472;2023-12-20T02:23:12;8.93;;;5.95;;
81930;SDS011;71395;43.488;1.472;2023-12-20T02:25:38;9.20;;;5.70;;
81930;SDS011;71395;43.488;1.472;2023-12-20T02:28:03;8.85;;;5.65;;
81930;SDS011;71395;43.488;1.472;2023-12-20T02:30:30;9.00;;;5.72;;
81930;SDS011;71395;43.488;1.472;2023-12-20T02:32:56;9.38;;;5.78;;
81930;SDS011;71395;43.488;1.472;2023-12-20T02:35:21;9.90;;;5.72;;
81930;SDS011;71395;43.488;1.472;2023-12-20T02:37:46;10.23;;;6.15;;
81930;SDS011;71395;43.488;1.472;2023-12-20T02:40:12;9.50;;;5.70;;
81930;SDS011;71395;43.488;1.472;2023-12-20T02:42:37;7.97;;;5.55;;
81930;SDS011;71395;43.488;1.472;2023-12-20T02:45:03;9.48;;;6.40;;
81930;SDS011;71395;43.488;1.472;2023-12-20T02:47:29;10.25;;;5.70;;
81930;SDS011;71395;43.488;1.472;2023-12-20T02:49:55;9.57;;;5.63;;
81930;SDS011;71395;43.488;1.472;2023-12-20T02:52:21;8.70;;;5.68;;
81930;SDS011;71395;43.488;1.472;2023-12-20T02:54:48;8.35;;;5.68;;
81930;SDS011;71395;43.488;1.472;2023-12-20T02:57:13;7.72;;;5.25;;
81930;SDS011;71395;43.488;1.472;2023-12-20T02:59:38;8.52;;;5.45;;
81930;SDS011;71395;43.488;1.472;2023-12-20T03:02:04;9.77;;;6.20;;
81930;SDS011;71395;43.488;1.472;2023-12-20T03:04:29;8.13;;;5.20;;
81930;SDS011;71395;43.488;1.472;2023-12-20T03:06:54;8.35;;;5.63;;
81930;SDS011;71395;43.488;1.472;2023-12-20T03:09:20;7.38;;;4.80;;
81930;SDS011;71395;43.488;1.472;2023-12-20T03:11:45;8.20;;;5.65;;
81930;SDS011;71395;43.488;1.472;2023-12-20T03:14:11;7.43;;;4.90;;
81930;SDS011;71395;43.488;1.472;2023-12-20T03:16:36;8.10;;;4.85;;
81930;SDS011;71395;43.488;1.472;2023-12-20T03:19:02;7.80;;;4.40;;
81930;SDS011;71395;43.488;1.472;2023-12-20T03:21:27;8.82;;;5.65;;
81930;SDS011;71395;43.488;1.472;2023-12-20T03:23:53;7.60;;;4.88;;
81930;SDS011;71395;43.488;1.472;2023-12-20T03:26:18;8.48;;;5.30;;
81930;SDS011;71395;43.488;1.472;2023-12-20T03:28:44;7.32;;;4.63;;
81930;SDS011;71395;43.488;1.472;2023-12-20T03:31:09;8.15;;;4.93;;
81930;SDS011;71395;43.488;1.472;2023-12-20T03:33:36;8.60;;;5.88;;
81930;SDS011;71395;43.488;1.472;2023-12-20T03:36:01;9.82;;;5.82;;
81930;SDS011;71395;43.488;1.472;2023-12-20T03:38:27;8.10;;;5.85;;
81930;SDS011;71395;43.488;1.472;2023-12-20T03:40:52;10.02;;;6.32;;
81930;SDS011;71395;43.488;1.472;2023-12-20T03:43:17;9.43;;;5.82;;
81930;SDS011;71395;43.488;1.472;2023-12-20T03:45:43;9.80;;;5.60;;
81930;SDS011;71395;43.488;1.472;2023-12-20T03:48:08;10.30;;;6.38;;
81930;SDS011;71395;43.488;1.472;2023-12-20T03:50:34;9.77;;;6.63;;
81930;SDS011;71395;43.488;1.472;2023-12-20T03:53:00;9.70;;;6.32;;
81930;SDS011;71395;43.488;1.472;2023-12-20T03:55:26;10.32;;;6.88;;
81930;SDS011;71395;43.488;1.472;2023-12-20T03:57:51;11.05;;;6.60;;
81930;SDS011;71395;43.488;1.472;2023-12-20T04:00:16;10.95;;;6.93;;
81930;SDS011;71395;43.488;1.472;2023-12-20T04:02:42;11.30;;;6.97;;
81930;SDS011;71395;43.488;1.472;2023-12-20T04:05:08;12.38;;;7.30;;
81930;SDS011;71395;43.488;1.472;2023-12-20T04:07:35;12.25;;;7.43;;
81930;SDS011;71395;43.488;1.472;2023-12-20T04:10:01;11.10;;;7.15;;
81930;SDS011;71395;43.488;1.472;2023-12-20T04:12:27;11.70;;;7.25;;
81930;SDS011;71395;43.488;1.472;2023-12-20T04:14:53;12.70;;;7.70;;
81930;SDS011;71395;43.488;1.472;2023-12-20T04:17:19;12.63;;;7.57;;
81930;SDS011;71395;43.488;1.472;2023-12-20T04:19:45;12.75;;;7.93;;
81930;SDS011;71395;43.488;1.472;2023-12-20T04:22:10;13.57;;;8.40;;
81930;SDS011;71395;43.488;1.472;2023-12-20T04:24:36;11.88;;;7.57;;
81930;SDS011;71395;43.488;1.472;2023-12-20T04:27:01;12.80;;;8.07;;
81930;SDS011;71395;43.488;1.472;2023-12-20T04:29:27;12.70;;;7.88;;
81930;SDS011;71395;43.488;1.472;2023-12-20T04:31:52;13.85;;;8.63;;
81930;SDS011;71395;43.488;1.472;2023-12-20T04:34:18;14.70;;;8.55;;
81930;SDS011;71395;43.488;1.472;2023-12-20T04:36:43;13.90;;;8.20;;
81930;SDS011;71395;43.488;1.472;2023-12-20T04:39:09;13.90;;;8.35;;
81930;SDS011;71395;43.488;1.472;2023-12-20T04:41:35;12.80;;;7.72;;
81930;SDS011;71395;43.488;1.472;2023-12-20T04:44:00;13.65;;;8.00;;
81930;SDS011;71395;43.488;1.472;2023-12-20T04:46:26;13.10;;;8.20;;
81930;SDS011;71395;43.488;1.472;2023-12-20T04:48:51;14.13;;;8.25;;
81930;SDS011;71395;43.488;1.472;2023-12-20T04:51:17;13.60;;;7.97;;
81930;SDS011;71395;43.488;1.472;2023-12-20T04:53:42;14.25;;;7.45;;
81930;SDS011;71395;43.488;1.472;2023-12-20T04:56:08;14.55;;;8.55;;
81930;SDS011;71395;43.488;1.472;2023-12-20T04:58:33;13.00;;;7.43;;
81930;SDS011;71395;43.488;1.472;2023-12-20T05:00:59;15.32;;;7.53;;
81930;SDS011;71395;43.488;1.472;2023-12-20T05:03:24;13.05;;;7.10;;
81930;SDS011;71395;43.488;1.472;2023-12-20T05:05:49;13.68;;;7.38;;
81930;SDS011;71395;43.488;1.472;2023-12-20T05:08:15;11.93;;;6.75;;
81930;SDS011;71395;43.488;1.472;2023-12-20T05:10:40;13.27;;;7.15;;
81930;SDS011;71395;43.488;1.472;2023-12-20T05:13:06;15.02;;;7.57;;
81930;SDS011;71395;43.488;1.472;2023-12-20T05:15:32;11.98;;;6.63;;
81930;SDS011;71395;43.488;1.472;2023-12-20T05:17:58;12.80;;;7.00;;
81930;SDS011;71395;43.488;1.472;2023-12-20T05:20:23;13.57;;;7.47;;
81930;SDS011;71395;43.488;1.472;2023-12-20T05:22:49;13.32;;;7.50;;
81930;SDS011;71395;43.488;1.472;2023-12-20T05:25:14;13.27;;;6.43;;
81930;SDS011;71395;43.488;1.472;2023-12-20T05:27:40;12.02;;;6.28;;
81930;SDS011;71395;43.488;1.472;2023-12-20T05:30:05;11.27;;;6.22;;
81930;SDS011;71395;43.488;1.472;2023-12-20T05:32:31;12.75;;;6.50;;
81930;SDS011;71395;43.488;1.472;2023-12-20T05:34:56;10.90;;;6.13;;
81930;SDS011;71395;43.488;1.472;2023-12-20T05:37:22;12.10;;;6.18;;
81930;SDS011;71395;43.488;1.472;2023-12-20T05:39:47;12.18;;;5.65;;
81930;SDS011;71395;43.488;1.472;2023-12-20T05:42:13;11.48;;;5.80;;
81930;SDS011;71395;43.488;1.472;2023-12-20T05:44:38;11.23;;;6.07;;
81930;SDS011;71395;43.488;1.472;2023-12-20T05:47:04;11.57;;;5.88;;
81930;SDS011;71395;43.488;1.472;2023-12-20T05:49:29;8.80;;;5.13;;
81930;SDS011;71395;43.488;1.472;2023-12-20T05:51:55;9.25;;;5.50;;
81930;SDS011;71395;43.488;1.472;2023-12-20T05:54:20;9.60;;;5.13;;
81930;SDS011;71395;43.488;1.472;2023-12-20T05:56:46;9.27;;;5.22;;
81930;SDS011;71395;43.488;1.472;2023-12-20T05:59:12;8.95;;;4.85;;
81930;SDS011;71395;43.488;1.472;2023-12-20T06:01:37;8.57;;;4.50;;
81930;SDS011;71395;43.488;1.472;2023-12-20T06:04:03;7.57;;;3.90;;
81930;SDS011;71395;43.488;1.472;2023-12-20T06:06:29;6.75;;;4.07;;
81930;SDS011;71395;43.488;1.472;2023-12-20T06:08:56;7.43;;;3.78;;
81930;SDS011;71395;43.488;1.472;2023-12-20T06:11:21;8.02;;;4.15;;
81930;SDS011;71395;43.488;1.472;2023-12-20T06:13:46;6.53;;;3.83;;
81930;SDS011;71395;43.488;1.472;2023-12-20T06:16:12;7.32;;;3.70;;
81930;SDS011;71395;43.488;1.472;2023-12-20T06:18:37;5.93;;;3.20;;
81930;SDS011;71395;43.488;1.472;2023-12-20T06:21:03;8.27;;;3.80;;
81930;SDS011;71395;43.488;1.472;2023-12-20T06:23:29;5.75;;;3.20;;
81930;SDS011;71395;43.488;1.472;2023-12-20T06:25:54;5.93;;;2.90;;
81930;SDS011;71395;43.488;1.472;2023-12-20T06:28:20;5.13;;;2.90;;
81930;SDS011;71395;43.488;1.472;2023-12-20T06:30:45;4.63;;;2.70;;
81930;SDS011;71395;43.488;1.472;2023-12-20T06:33:14;5.32;;;2.85;;
81930;SDS011;71395;43.488;1.472;2023-12-20T06:35:39;4.90;;;2.72;;
81930;SDS011;71395;43.488;1.472;2023-12-20T06:38:05;5.93;;;3.33;;
81930;SDS011;71395;43.488;1.472;2023-12-20T06:40:30;6.50;;;3.20;;
81930;SDS011;71395;43.488;1.472;2023-12-20T06:42:56;6.32;;;3.25;;
81930;SDS011;71395;43.488;1.472;2023-12-20T06:45:21;10.77;;;4.57;;
81930;SDS011;71395;43.488;1.472;2023-12-20T06:47:47;8.07;;;4.35;;
81930;SDS011;71395;43.488;1.472;2023-12-20T06:50:12;8.27;;;4.05;;
81930;SDS011;71395;43.488;1.472;2023-12-20T06:52:37;6.72;;;3.50;;
81930;SDS011;71395;43.488;1.472;2023-12-20T06:55:03;5.45;;;3.10;;
81930;SDS011;71395;43.488;1.472;2023-12-20T06:57:29;5.13;;;3.03;;
81930;SDS011;71395;43.488;1.472;2023-12-20T06:59:55;5.60;;;3.40;;
81930;SDS011;71395;43.488;1.472;2023-12-20T07:02:20;6.03;;;2.70;;
81930;SDS011;71395;43.488;1.472;2023-12-20T07:04:47;6.10;;;2.95;;
81930;SDS011;71395;43.488;1.472;2023-12-20T07:07:13;5.88;;;2.90;;
81930;SDS011;71395;43.488;1.472;2023-12-20T07:09:38;3.97;;;2.30;;
81930;SDS011;71395;43.488;1.472;2023-12-20T07:12:06;3.95;;;2.63;;
81930;SDS011;71395;43.488;1.472;2023-12-20T07:14:31;5.28;;;2.53;;
81930;SDS011;71395;43.488;1.472;2023-12-20T07:16:57;3.95;;;2.53;;
81930;SDS011;71395;43.488;1.472;2023-12-20T07:19:22;4.93;;;2.67;;
81930;SDS011;71395;43.488;1.472;2023-12-20T07:21:48;4.70;;;2.60;;
81930;SDS011;71395;43.488;1.472;2023-12-20T07:24:13;4.15;;;2.35;;
81930;SDS011;71395;43.488;1.472;2023-12-20T07:26:38;3.70;;;2.03;;
81930;SDS011;71395;43.488;1.472;2023-12-20T07:29:05;3.55;;;2.30;;
81930;SDS011;71395;43.488;1.472;2023-12-20T07:31:31;3.78;;;1.98;;
81930;SDS011;71395;43.488;1.472;2023-12-20T07:33:57;3.38;;;2.03;;
81930;SDS011;71395;43.488;1.472;2023-12-20T07:36:22;3.00;;;1.90;;
81930;SDS011;71395;43.488;1.472;2023-12-20T07:38:48;3.00;;;1.83;;
81930;SDS011;71395;43.488;1.472;2023-12-20T07:41:13;3.35;;;1.90;;
81930;SDS011;71395;43.488;1.472;2023-12-20T07:43:40;3.17;;;1.70;;
81930;SDS011;71395;43.488;1.472;2023-12-20T07:46:06;3.15;;;1.73;;
81930;SDS011;71395;43.488;1.472;2023-12-20T07:48:36;2.80;;;1.63;;
81930;SDS011;71395;43.488;1.472;2023-12-20T07:51:02;4.20;;;2.03;;
81930;SDS011;71395;43.488;1.472;2023-12-20T07:53:29;2.92;;;1.65;;
81930;SDS011;71395;43.488;1.472;2023-12-20T07:55:54;3.70;;;1.70;;
81930;SDS011;71395;43.488;1.472;2023-12-20T07:58:20;3.05;;;1.70;;
81930;SDS011;71395;43.488;1.472;2023-12-20T08:00:45;3.22;;;1.70;;
81930;SDS011;71395;43.488;1.472;2023-12-20T08:03:11;3.10;;;2.00;;
81930;SDS011;71395;43.488;1.472;2023-12-20T08:05:36;3.15;;;1.75;;
81930;SDS011;71395;43.488;1.472;2023-12-20T08:08:04;2.70;;;1.70;;
81930;SDS011;71395;43.488;1.472;2023-12-20T08:10:30;3.60;;;1.98;;
81930;SDS011;71395;43.488;1.472;2023-12-20T08:12:55;3.33;;;1.95;;
81930;SDS011;71395;43.488;1.472;2023-12-20T08:15:20;2.92;;;1.80;;
81930;SDS011;71395;43.488;1.472;2023-12-20T08:17:46;3.63;;;2.00;;
81930;SDS011;71395;43.488;1.472;2023-12-20T08:20:11;3.00;;;2.15;;
81930;SDS011;71395;43.488;1.472;2023-12-20T08:22:37;3.53;;;1.80;;
81930;SDS011;71395;43.488;1.472;2023-12-20T08:25:02;2.60;;;1.63;;
81930;SDS011;71395;43.488;1.472;2023-12-20T08:27:28;3.72;;;1.92;;
81930;SDS011;71395;43.488;1.472;2023-12-20T08:29:53;2.88;;;1.75;;
81930;SDS011;71395;43.488;1.472;2023-12-20T08:32:19;2.92;;;2.00;;
81930;SDS011;71395;43.488;1.472;2023-12-20T08:34:44;3.25;;;2.10;;
81930;SDS011;71395;43.488;1.472;2023-12-20T08:37:09;3.78;;;2.03;;
81930;SDS011;71395;43.488;1.472;2023-12-20T08:39:35;3.03;;;1.75;;
81930;SDS011;71395;43.488;1.472;2023-12-20T08:42:00;3.00;;;1.83;;
81930;SDS011;71395;43.488;1.472;2023-12-20T08:44:26;2.63;;;1.70;;
81930;SDS011;71395;43.488;1.472;2023-12-20T08:46:51;3.20;;;1.92;;
81930;SDS011;71395;43.488;1.472;2023-12-20T08:49:16;3.00;;;1.77;;
81930;SDS011;71395;43.488;1.472;2023-12-20T08:51:42;2.65;;;1.52;;
81930;SDS011;71395;43.488;1.472;2023-12-20T08:54:07;2.75;;;1.63;;
81930;SDS011;71395;43.488;1.472;2023-12-20T08:56:33;3.00;;;1.50;;
81930;SDS011;71395;43.488;1.472;2023-12-20T08:58:59;2.90;;;1.63;;
81930;SDS011;71395;43.488;1.472;2023-12-20T09:01:24;2.83;;;1.90;;
81930;SDS011;71395;43.488;1.472;2023-12-20T09:03:50;3.75;;;2.10;;
81930;SDS011;71395;43.488;1.472;2023-12-20T09:06:15;3.38;;;2.03;;
81930;SDS011;71395;43.488;1.472;2023-12-20T09:08:41;3.67;;;1.70;;
81930;SDS011;71395;43.488;1.472;2023-12-20T09:11:06;4.13;;;2.10;;
81930;SDS011;71395;43.488;1.472;2023-12-20T09:13:32;3.05;;;1.73;;
81930;SDS011;71395;43.488;1.472;2023-12-20T09:15:57;2.90;;;1.70;;
81930;SDS011;71395;43.488;1.472;2023-12-20T09:18:23;3.15;;;1.92;;
81930;SDS011;71395;43.488;1.472;2023-12-20T09:20:48;3.50;;;2.10;;
81930;SDS011;71395;43.488;1.472;2023-12-20T09:23:14;3.30;;;2.10;;
81930;SDS011;71395;43.488;1.472;2023-12-20T09:25:39;3.47;;;2.03;;
81930;SDS011;71395;43.488;1.472;2023-12-20T09:28:05;3.50;;;2.05;;
81930;SDS011;71395;43.488;1.472;2023-12-20T09:30:30;4.30;;;1.98;;
81930;SDS011;71395;43.488;1.472;2023-12-20T09:32:56;4.03;;;2.47;;
81930;SDS011;71395;43.488;1.472;2023-12-20T09:35:23;3.58;;;1.90;;
81930;SDS011;71395;43.488;1.472;2023-12-20T09:37:49;3.47;;;2.03;;
81930;SDS011;71395;43.488;1.472;2023-12-20T09:40:14;4.75;;;1.90;;
81930;SDS011;71395;43.488;1.472;2023-12-20T09:45:12;3.60;;;2.00;;
81930;SDS011;71395;43.488;1.472;2023-12-20T09:47:40;4.18;;;2.17;;
81930;SDS011;71395;43.488;1.472;2023-12-20T09:50:06;3.10;;;1.92;;
81930;SDS011;71395;43.488;1.472;2023-12-20T09:52:32;3.35;;;1.90;;
81930;SDS011;71395;43.488;1.472;2023-12-20T09:55:01;4.20;;;2.20;;
81930;SDS011;71395;43.488;1.472;2023-12-20T09:57:30;4.40;;;1.95;;
81930;SDS011;71395;43.488;1.472;2023-12-20T09:59:57;3.13;;;2.03;;
81930;SDS011;71395;43.488;1.472;2023-12-20T10:02:23;3.40;;;1.92;;
81930;SDS011;71395;43.488;1.472;2023-12-20T10:04:52;3.03;;;1.88;;
81930;SDS011;71395;43.488;1.472;2023-12-20T10:07:17;4.25;;;2.17;;
81930;SDS011;71395;43.488;1.472;2023-12-20T10:09:43;3.92;;;2.25;;
81930;SDS011;71395;43.488;1.472;2023-12-20T10:12:09;5.93;;;2.38;;
81930;SDS011;71395;43.488;1.472;2023-12-20T10:14:34;3.42;;;1.90;;
81930;SDS011;71395;43.488;1.472;2023-12-20T10:17:04;3.88;;;1.92;;
81930;SDS011;71395;43.488;1.472;2023-12-20T10:19:30;3.75;;;2.13;;
81930;SDS011;71395;43.488;1.472;2023-12-20T10:21:57;2.90;;;1.83;;
81930;SDS011;71395;43.488;1.472;2023-12-20T10:24:28;4.03;;;1.98;;
81930;SDS011;71395;43.488;1.472;2023-12-20T10:27:01;3.67;;;1.90;;
81930;SDS011;71395;43.488;1.472;2023-12-20T10:29:31;3.65;;;1.73;;
81930;SDS011;71395;43.488;1.472;2023-12-20T10:31:58;4.38;;;1.85;;
81930;SDS011;71395;43.488;1.472;2023-12-20T10:34:23;4.57;;;2.22;;
81930;SDS011;71395;43.488;1.472;2023-12-20T10:36:49;7.03;;;3.15;;
81930;SDS011;71395;43.488;1.472;2023-12-20T10:39:15;8.25;;;3.00;;
81930;SDS011;71395;43.488;1.472;2023-12-20T10:41:40;6.00;;;3.22;;
81930;SDS011;71395;43.488;1.472;2023-12-20T10:44:08;5.05;;;2.63;;
81930;SDS011;71395;43.488;1.472;2023-12-20T10:46:35;4.40;;;2.53;;
81930;SDS011;71395;43.488;1.472;2023-12-20T10:49:05;3.97;;;2.22;;
81930;SDS011;71395;43.488;1.472;2023-12-20T10:51:33;5.88;;;2.15;;
81930;SDS011;71395;43.488;1.472;2023-12-20T10:53:59;3.80;;;1.90;;
81930;SDS011;71395;43.488;1.472;2023-12-20T10:56:25;3.83;;;1.90;;
81930;SDS011;71395;43.488;1.472;2023-12-20T10:58:57;4.22;;;1.90;;
81930;SDS011;71395;43.488;1.472;2023-12-20T11:01:26;3.80;;;1.92;;
81930;SDS011;71395;43.488;1.472;2023-12-20T11:03:54;4.07;;;1.80;;
81930;SDS011;71395;43.488;1.472;2023-12-20T11:08:50;3.75;;;1.92;;
81930;SDS011;71395;43.488;1.472;2023-12-20T11:14:00;4.03;;;1.75;;
81930;SDS011;71395;43.488;1.472;2023-12-20T11:16:31;3.78;;;1.77;;
81930;SDS011;71395;43.488;1.472;2023-12-20T11:18:56;3.08;;;1.65;;
81930;SDS011;71395;43.488;1.472;2023-12-20T11:21:22;3.08;;;1.50;;
81930;SDS011;71395;43.488;1.472;2023-12-20T11:23:47;4.03;;;1.50;;
81930;SDS011;71395;43.488;1.472;2023-12-20T11:26:15;3.05;;;1.55;;
81930;SDS011;71395;43.488;1.472;2023-12-20T11:28:41;3.60;;;1.38;;
81930;SDS011;71395;43.488;1.472;2023-12-20T11:31:07;3.10;;;1.20;;
81930;SDS011;71395;43.488;1.472;2023-12-20T11:33:36;4.40;;;1.25;;
81930;SDS011;71395;43.488;1.472;2023-12-20T11:36:02;2.85;;;1.02;;
81930;SDS011;71395;43.488;1.472;2023-12-20T11:38:37;4.05;;;1.08;;
81930;SDS011;71395;43.488;1.472;2023-12-20T11:41:05;2.33;;;1.25;;
81930;SDS011;71395;43.488;1.472;2023-12-20T11:46:05;2.50;;;1.15;;
81930;SDS011;71395;43.488;1.472;2023-12-20T11:48:31;2.35;;;0.93;;
81930;SDS011;71395;43.488;1.472;2023-12-20T11:50:57;3.22;;;1.20;;
81930;SDS011;71395;43.488;1.472;2023-12-20T11:53:23;3.40;;;1.17;;
81930;SDS011;71395;43.488;1.472;2023-12-20T11:55:49;1.90;;;0.93;;
81930;SDS011;71395;43.488;1.472;2023-12-20T11:58:14;2.47;;;0.82;;
81930;SDS011;71395;43.488;1.472;2023-12-20T12:00:41;3.50;;;0.93;;
81930;SDS011;71395;43.488;1.472;2023-12-20T12:03:08;3.10;;;0.95;;
81930;SDS011;71395;43.488;1.472;2023-12-20T12:05:34;3.45;;;1.10;;
81930;SDS011;71395;43.488;1.472;2023-12-20T12:08:00;2.25;;;0.90;;
81930;SDS011;71395;43.488;1.472;2023-12-20T12:10:26;3.75;;;0.95;;
81930;SDS011;71395;43.488;1.472;2023-12-20T12:12:51;2.70;;;1.20;;
81930;SDS011;71395;43.488;1.472;2023-12-20T12:15:17;3.60;;;1.02;;
81930;SDS011;71395;43.488;1.472;2023-12-20T12:17:42;3.33;;;1.00;;
81930;SDS011;71395;43.488;1.472;2023-12-20T12:20:08;2.90;;;1.00;;
81930;SDS011;71395;43.488;1.472;2023-12-20T12:22:35;2.95;;;0.85;;
81930;SDS011;71395;43.488;1.472;2023-12-20T12:25:11;4.32;;;1.13;;
81930;SDS011;71395;43.488;1.472;2023-12-20T12:27:41;2.80;;;0.93;;
81930;SDS011;71395;43.488;1.472;2023-12-20T12:30:08;2.95;;;0.82;;
81930;SDS011;71395;43.488;1.472;2023-12-20T12:32:34;3.15;;;0.90;;
81930;SDS011;71395;43.488;1.472;2023-12-20T12:35:00;1.95;;;0.75;;
81930;SDS011;71395;43.488;1.472;2023-12-20T12:37:28;2.45;;;0.77;;
81930;SDS011;71395;43.488;1.472;2023-12-20T12:39:53;2.08;;;0.68;;
81930;SDS011;71395;43.488;1.472;2023-12-20T12:42:20;2.85;;;0.98;;
81930;SDS011;71395;43.488;1.472;2023-12-20T12:44:46;2.25;;;0.80;;
81930;SDS011;71395;43.488;1.472;2023-12-20T12:47:12;2.75;;;1.08;;
81930;SDS011;71395;43.488;1.472;2023-12-20T12:49:37;2.58;;;0.60;;
81930;SDS011;71395;43.488;1.472;2023-12-20T12:52:05;2.58;;;0.80;;
81930;SDS011;71395;43.488;1.472;2023-12-20T12:54:30;3.85;;;1.10;;
81930;SDS011;71395;43.488;1.472;2023-12-20T12:56:56;5.47;;;1.35;;
81930;SDS011;71395;43.488;1.472;2023-12-20T12:59:22;2.22;;;0.75;;
81930;SDS011;71395;43.488;1.472;2023-12-20T13:01:48;3.92;;;0.80;;
81930;SDS011;71395;43.488;1.472;2023-12-20T13:04:13;4.43;;;1.10;;
81930;SDS011;71395;43.488;1.472;2023-12-20T13:06:39;3.00;;;0.68;;
81930;SDS011;71395;43.488;1.472;2023-12-20T13:09:06;5.03;;;1.08;;
81930;SDS011;71395;43.488;1.472;2023-12-20T13:11:32;3.85;;;0.63;;
81930;SDS011;71395;43.488;1.472;2023-12-20T13:13:58;5.80;;;0.90;;
81930;SDS011;71395;43.488;1.472;2023-12-20T13:16:23;2.35;;;0.80;;
81930;SDS011;71395;43.488;1.472;2023-12-20T13:18:49;3.75;;;1.10;;
81930;SDS011;71395;43.488;1.472;2023-12-20T13:21:15;3.15;;;0.90;;
81930;SDS011;71395;43.488;1.472;2023-12-20T13:23:41;3.60;;;0.80;;
81930;SDS011;71395;43.488;1.472;2023-12-20T13:26:06;3.28;;;0.88;;
81930;SDS011;71395;43.488;1.472;2023-12-20T13:28:32;3.90;;;0.90;;
81930;SDS011;71395;43.488;1.472;2023-12-20T13:30:58;3.80;;;0.70;;
81930;SDS011;71395;43.488;1.472;2023-12-20T13:33:23;1.98;;;0.80;;
81930;SDS011;71395;43.488;1.472;2023-12-20T13:35:48;2.85;;;0.60;;
81930;SDS011;71395;43.488;1.472;2023-12-20T13:38:14;3.20;;;0.90;;
81930;SDS011;71395;43.488;1.472;2023-12-20T13:40:39;2.92;;;0.82;;
81930;SDS011;71395;43.488;1.472;2023-12-20T13:43:05;4.22;;;0.88;;
81930;SDS011;71395;43.488;1.472;2023-12-20T13:45:31;2.35;;;0.70;;
81930;SDS011;71395;43.488;1.472;2023-12-20T13:47:56;4.10;;;1.00;;
81930;SDS011;71395;43.488;1.472;2023-12-20T13:50:22;3.03;;;1.00;;
81930;SDS011;71395;43.488;1.472;2023-12-20T13:52:47;3.75;;;0.80;;
81930;SDS011;71395;43.488;1.472;2023-12-20T13:55:13;3.80;;;1.17;;
81930;SDS011;71395;43.488;1.472;2023-12-20T13:57:38;2.80;;;0.80;;
81930;SDS011;71395;43.488;1.472;2023-12-20T14:00:05;4.90;;;1.02;;
81930;SDS011;71395;43.488;1.472;2023-12-20T14:02:31;3.30;;;0.95;;
81930;SDS011;71395;43.488;1.472;2023-12-20T14:04:56;2.47;;;0.90;;
81930;SDS011;71395;43.488;1.472;2023-12-20T14:07:21;3.00;;;1.15;;
81930;SDS011;71395;43.488;1.472;2023-12-20T14:09:47;2.65;;;0.60;;
81930;SDS011;71395;43.488;1.472;2023-12-20T14:12:13;3.13;;;0.90;;
81930;SDS011;71395;43.488;1.472;2023-12-20T14:14:39;3.33;;;1.00;;
81930;SDS011;71395;43.488;1.472;2023-12-20T14:17:04;3.90;;;1.20;;
81930;SDS011;71395;43.488;1.472;2023-12-20T14:19:33;2.70;;;0.88;;
81930;SDS011;71395;43.488;1.472;2023-12-20T14:21:58;2.22;;;0.95;;
81930;SDS011;71395;43.488;1.472;2023-12-20T14:24:26;2.95;;;0.70;;
81930;SDS011;71395;43.488;1.472;2023-12-20T14:26:52;4.65;;;1.00;;
81930;SDS011;71395;43.488;1.472;2023-12-20T14:29:18;3.45;;;1.00;;
81930;SDS011;71395;43.488;1.472;2023-12-20T14:31:43;2.03;;;0.80;;
81930;SDS011;71395;43.488;1.472;2023-12-20T14:34:09;2.97;;;0.90;;
81930;SDS011;71395;43.488;1.472;2023-12-20T14:36:34;4.03;;;1.00;;
81930;SDS011;71395;43.488;1.472;2023-12-20T14:39:00;2.95;;;1.27;;
81930;SDS011;71395;43.488;1.472;2023-12-20T14:41:26;4.03;;;1.10;;
81930;SDS011;71395;43.488;1.472;2023-12-20T14:43:52;5.45;;;1.30;;
81930;SDS011;71395;43.488;1.472;2023-12-20T14:46:18;2.92;;;1.45;;